createdAt,value
2018-06-21T00:00:26.244Z,99.90
2018-06-21T00:03:36.745Z,99.90
2018-06-21T00:06:47.526Z,99.90
2018-06-21T00:09:58.260Z,99.90
2018-06-21T00:13:08.802Z,99.90
2018-06-21T00:16:18.697Z,99.90
2018-06-21T00:19:29.715Z,99.90
2018-06-21T00:22:40.342Z,99.90
2018-06-21T00:25:51.225Z,99.90
2018-06-21T00:29:02.095Z,99.90
2018-06-21T00:32:12.732Z,99.90
2018-06-21T00:35:23.432Z,99.90
2018-06-21T00:38:33.371Z,99.90
2018-06-21T00:41:44.390Z,99.90
2018-06-21T00:44:54.885Z,99.90
2018-06-21T00:48:05.801Z,99.90
2018-06-21T00:51:16.445Z,99.90
2018-06-21T00:54:26.373Z,99.90
2018-06-21T01:00:46.173Z,99.90
2018-06-21T01:03:57.142Z,99.90
2018-06-21T01:07:07.978Z,99.90
2018-06-21T01:10:18.918Z,99.90
2018-06-21T01:13:29.650Z,99.90
2018-06-21T01:16:40.422Z,99.90
2018-06-21T01:19:51.258Z,99.90
2018-06-21T01:23:01.195Z,99.90
2018-06-21T01:26:11.920Z,99.90
2018-06-21T01:29:21.900Z,99.90
2018-06-21T01:32:32.811Z,99.90
2018-06-21T01:35:43.555Z,99.90
2018-06-21T01:38:53.476Z,99.90
2018-06-21T01:42:05.031Z,99.90
2018-06-21T01:45:15.080Z,99.90
2018-06-21T01:48:25.306Z,99.90
2018-06-21T01:51:36.033Z,99.90
2018-06-21T01:54:46.060Z,99.90
2018-06-21T01:57:56.363Z,99.90
2018-06-21T02:01:07.319Z,99.90
2018-06-21T02:04:17.843Z,99.90
2018-06-21T02:07:27.705Z,99.90
2018-06-21T02:10:37.821Z,99.90
2018-06-21T02:13:48.223Z,99.90
2018-06-21T02:16:58.646Z,99.90
2018-06-21T02:20:09.335Z,99.90
2018-06-21T02:23:19.876Z,99.90
2018-06-21T02:26:30.102Z,99.90
2018-06-21T02:29:41.092Z,99.90
2018-06-21T02:32:51.945Z,99.90
2018-06-21T02:36:02.783Z,99.90
2018-06-21T02:39:13.532Z,99.90
2018-06-21T02:42:23.943Z,99.90
2018-06-21T02:45:34.361Z,99.90
2018-06-21T02:48:44.313Z,99.90
2018-06-21T02:51:54.241Z,99.90
2018-06-21T02:55:04.437Z,99.90
2018-06-21T02:58:15.373Z,99.90
2018-06-21T03:01:26.187Z,99.90
2018-06-21T03:04:36.770Z,99.90
2018-06-21T03:07:46.756Z,99.90
2018-06-21T03:10:57.610Z,99.90
2018-06-21T03:14:07.795Z,99.90
2018-06-21T03:17:18.454Z,99.90
2018-06-21T03:20:34.782Z,99.90
2018-06-21T03:30:37.705Z,99.90
2018-06-21T03:33:48.545Z,99.90
2018-06-21T03:36:59.373Z,99.90
2018-06-21T03:40:10.230Z,99.90
2018-06-21T03:43:23.188Z,99.90
2018-06-21T03:46:39.610Z,99.90
2018-06-21T03:49:49.664Z,99.90
2018-06-21T03:53:00.218Z,99.90
2018-06-21T03:56:10.604Z,99.90
2018-06-21T03:59:21.412Z,99.90
2018-06-21T04:02:32.326Z,99.90
2018-06-21T04:05:43.166Z,99.90
2018-06-21T04:08:53.988Z,99.90
2018-06-21T04:12:04.729Z,99.90
2018-06-21T04:15:16.063Z,99.90
2018-06-21T04:18:30.812Z,99.90
2018-06-21T04:21:41.438Z,99.90
2018-06-21T04:25:34.603Z,99.90
2018-06-21T04:28:45.227Z,99.90
2018-06-21T04:31:55.353Z,99.90
2018-06-21T04:35:05.942Z,99.90
2018-06-21T04:38:15.781Z,99.90
2018-06-21T04:41:25.832Z,99.90
2018-06-21T04:44:37.032Z,99.90
2018-06-21T04:47:47.771Z,99.90
2018-06-21T04:50:58.307Z,99.90
2018-06-21T04:54:08.984Z,99.90
2018-06-21T04:57:19.691Z,99.90
2018-06-21T05:00:29.603Z,99.90
2018-06-21T05:10:00.967Z,99.90
2018-06-21T05:13:11.596Z,99.90
2018-06-21T05:16:22.267Z,99.90
2018-06-21T05:25:53.167Z,99.90
2018-06-21T05:29:04.333Z,99.90
2018-06-21T05:32:14.895Z,99.90
2018-06-21T05:39:01.167Z,99.90
2018-06-21T05:42:11.480Z,99.90
2018-06-21T05:45:22.405Z,99.90
2018-06-21T05:48:33.439Z,99.90
2018-06-21T05:51:44.017Z,99.90
2018-06-21T05:54:54.969Z,99.90
2018-06-21T05:58:05.538Z,99.90
2018-06-21T06:01:15.293Z,99.90
2018-06-21T06:04:25.093Z,99.90
2018-06-21T06:07:39.572Z,99.90
2018-06-21T06:10:51.635Z,99.90
2018-06-21T06:14:01.978Z,99.90
2018-06-21T06:17:12.354Z,99.90
2018-06-21T06:20:22.223Z,99.90
2018-06-21T06:23:32.153Z,99.90
2018-06-21T06:26:41.975Z,99.90
2018-06-21T06:29:51.954Z,99.90
2018-06-21T06:33:04.775Z,99.90
2018-06-21T06:36:18.656Z,99.90
2018-06-21T06:39:29.289Z,99.90
2018-06-21T06:42:38.987Z,99.90
2018-06-21T06:45:49.299Z,99.90
2018-06-21T06:48:59.252Z,99.90
2018-06-21T06:52:09.130Z,99.90
2018-06-21T08:23:58.428Z,99.90
2018-06-21T08:27:08.749Z,99.90
2018-06-21T08:30:18.882Z,99.90
2018-06-21T08:33:30.637Z,99.90
2018-06-21T08:36:40.665Z,99.90
2018-06-21T08:39:50.397Z,99.90
2018-06-21T08:43:00.312Z,99.90
2018-06-21T08:46:09.961Z,99.90
2018-06-21T08:49:19.939Z,99.90
2018-06-21T08:52:29.722Z,99.90
2018-06-21T08:55:39.280Z,99.90
2018-06-21T08:58:49.303Z,99.70
2018-06-21T09:01:59.847Z,99.00
2018-06-21T09:05:13.487Z,99.40
2018-06-21T09:08:23.197Z,99.00
2018-06-21T09:11:32.986Z,96.80
2018-06-21T09:14:42.615Z,97.60
2018-06-21T09:17:52.648Z,97.10
2018-06-21T09:21:03.038Z,95.30
2018-06-21T09:24:14.191Z,94.30
2018-06-21T09:27:24.460Z,95.00
2018-06-21T09:30:35.153Z,93.80
2018-06-21T09:33:44.985Z,94.70
2018-06-21T09:36:55.351Z,93.40
2018-06-21T09:40:11.341Z,92.20
2018-06-21T09:43:28.135Z,92.50
2018-06-21T09:46:43.048Z,91.80
2018-06-21T09:49:53.585Z,91.40
2018-06-21T09:53:03.363Z,91.10
2018-06-21T09:56:13.299Z,88.60
2018-06-21T09:59:23.807Z,89.40
2018-06-21T10:02:33.630Z,89.70
2018-06-21T10:05:43.280Z,89.90
2018-06-21T10:08:53.012Z,90.50
2018-06-21T10:12:02.921Z,90.80
2018-06-21T10:15:12.651Z,89.60
2018-06-21T10:18:22.300Z,87.50
2018-06-21T10:21:32.021Z,90.00
2018-06-21T10:24:42.339Z,89.20
2018-06-21T10:27:52.724Z,87.00
2018-06-21T10:31:09.746Z,85.50
2018-06-21T10:34:21.037Z,87.80
2018-06-21T10:37:31.414Z,84.90
2018-06-21T10:40:41.337Z,84.80
2018-06-21T10:43:51.881Z,81.90
2018-06-21T10:47:02.052Z,83.70
2018-06-21T10:50:12.364Z,84.30
2018-06-21T10:53:22.948Z,83.90
2018-06-21T10:56:33.684Z,81.90
2018-06-21T10:59:44.292Z,82.40
2018-06-21T11:02:54.191Z,79.60
2018-06-21T11:06:04.176Z,81.80
2018-06-21T11:09:14.492Z,80.00
2018-06-21T11:12:24.294Z,80.00
2018-06-21T11:15:33.956Z,80.40
2018-06-21T11:18:45.076Z,78.60
2018-06-21T11:21:55.621Z,77.00
2018-06-21T11:25:05.986Z,71.50
2018-06-21T11:28:16.206Z,67.60
2018-06-21T11:31:26.125Z,64.40
2018-06-21T11:34:36.064Z,62.70
2018-06-21T11:37:46.321Z,61.00
2018-06-21T11:40:57.027Z,61.90
2018-06-21T11:44:07.545Z,62.40
2018-06-21T11:47:17.261Z,61.10
2018-06-21T11:50:27.115Z,62.90
2018-06-21T11:53:37.650Z,62.60
2018-06-21T11:56:47.405Z,63.40
2018-06-21T11:59:57.064Z,65.00
2018-06-21T12:03:17.969Z,66.20
2018-06-21T12:06:28.918Z,67.80
2018-06-21T12:09:39.449Z,68.30
2018-06-21T12:12:50.050Z,66.30
2018-06-21T12:15:59.681Z,59.10
2018-06-21T12:19:09.576Z,58.90
2018-06-21T12:22:19.518Z,59.20
2018-06-21T12:25:29.771Z,60.10
2018-06-21T12:28:39.895Z,59.20
2018-06-21T12:31:49.608Z,59.40
2018-06-21T12:34:59.621Z,60.10
2018-06-21T12:38:09.450Z,65.70
2018-06-21T12:41:19.913Z,76.00
2018-06-21T12:44:29.714Z,80.80
2018-06-21T12:47:39.676Z,85.10
2018-06-21T12:50:49.842Z,88.30
2018-06-21T12:54:00.193Z,90.60
2018-06-21T12:57:10.830Z,91.60
2018-06-21T13:00:21.532Z,91.50
2018-06-21T13:03:31.386Z,92.60
2018-06-21T13:06:41.951Z,92.40
2018-06-21T13:10:03.295Z,92.80
2018-06-21T13:16:28.260Z,94.00
2018-06-21T13:19:39.179Z,94.10
2018-06-21T13:22:50.137Z,93.90
2018-06-21T13:26:00.886Z,93.50
2018-06-21T13:29:13.130Z,93.60
2018-06-21T13:32:23.714Z,93.40
2018-06-21T13:35:38.015Z,93.80
2018-06-21T13:38:48.243Z,93.70
2018-06-21T13:41:59.124Z,94.00
2018-06-21T13:45:09.777Z,94.00
2018-06-21T13:48:21.490Z,94.50
2018-06-21T13:51:32.177Z,94.10
2018-06-21T13:54:42.656Z,94.30
2018-06-21T13:57:52.932Z,95.20
2018-06-21T14:01:03.355Z,95.80
2018-06-21T14:04:13.858Z,96.40
2018-06-21T14:07:23.918Z,97.10
2018-06-21T14:10:34.418Z,98.30
2018-06-21T14:13:44.934Z,99.50
2018-06-21T14:16:55.921Z,99.90
2018-06-21T14:20:06.461Z,99.90
2018-06-21T14:23:17.211Z,99.90
2018-06-21T14:26:28.316Z,99.90
2018-06-21T14:29:38.224Z,99.90
2018-06-21T14:32:48.852Z,99.90
2018-06-21T14:35:59.710Z,99.90
2018-06-21T14:39:10.613Z,99.90
2018-06-21T14:42:21.009Z,99.90
2018-06-21T14:45:31.990Z,99.90
2018-06-21T14:48:43.311Z,99.90
2018-06-21T14:51:53.508Z,99.90
2018-06-21T14:55:03.608Z,99.90
2018-06-21T14:58:14.655Z,99.90
2018-06-21T15:01:24.962Z,99.90
2018-06-21T15:04:34.906Z,99.90
2018-06-21T15:07:45.713Z,99.90
2018-06-21T15:10:56.608Z,99.90
2018-06-21T15:14:06.905Z,99.90
2018-06-21T15:17:17.126Z,99.90
2018-06-21T15:20:27.580Z,99.90
2018-06-21T15:23:37.699Z,99.90
2018-06-21T15:26:48.712Z,99.90
2018-06-21T15:29:59.084Z,99.90
2018-06-21T15:33:09.665Z,99.90
2018-06-21T15:36:19.714Z,99.90
2018-06-21T15:39:30.443Z,99.90
2018-06-21T15:42:41.316Z,99.90
2018-06-21T15:45:52.180Z,99.90
2018-06-21T15:49:02.716Z,99.90
2018-06-21T15:52:13.601Z,99.90
2018-06-21T15:55:24.574Z,99.90
2018-06-21T15:58:35.126Z,99.90
2018-06-21T16:01:45.896Z,99.90
2018-06-21T16:04:56.697Z,99.90
2018-06-21T16:08:07.475Z,99.90
2018-06-21T16:11:17.787Z,99.90
2018-06-21T16:14:28.214Z,99.90
2018-06-21T16:17:38.931Z,99.90
2018-06-21T16:20:49.040Z,99.90
2018-06-21T16:23:59.833Z,99.90
2018-06-21T16:27:10.500Z,99.90
2018-06-21T16:30:20.898Z,99.90
2018-06-21T16:33:31.729Z,99.90
2018-06-21T16:36:42.784Z,99.90
2018-06-21T16:39:53.574Z,99.90
2018-06-21T16:43:04.697Z,99.90
2018-06-21T16:46:15.381Z,99.90
2018-06-21T16:49:26.135Z,99.90
2018-06-21T16:52:37.100Z,99.90
2018-06-21T16:55:47.961Z,99.90
2018-06-21T16:58:58.841Z,99.90
2018-06-21T17:02:09.245Z,99.90
2018-06-21T17:05:20.004Z,99.90
2018-06-21T17:08:30.686Z,99.90
2018-06-21T17:11:41.162Z,99.90
2018-06-21T17:14:51.619Z,99.90
2018-06-21T17:18:02.170Z,98.20
2018-06-21T17:21:12.799Z,95.80
2018-06-21T17:24:22.687Z,87.90
2018-06-21T17:27:33.075Z,78.90
2018-06-21T17:30:43.437Z,73.30
2018-06-21T17:33:54.228Z,76.10
2018-06-21T17:40:15.486Z,72.20
2018-06-21T17:43:26.296Z,73.20
2018-06-21T17:46:38.933Z,69.50
2018-06-21T17:49:49.271Z,69.20
2018-06-21T17:53:00.013Z,68.00
2018-06-21T17:56:10.487Z,64.60
2018-06-21T17:59:21.182Z,70.30
2018-06-21T18:05:43.472Z,73.80
2018-06-21T18:08:54.292Z,76.30
2018-06-21T18:12:07.732Z,73.80
2018-06-21T18:15:18.760Z,74.70
2018-06-21T18:18:31.274Z,74.50
2018-06-21T18:21:43.281Z,73.80
2018-06-21T18:24:54.725Z,73.80
2018-06-21T18:28:08.032Z,73.80
2018-06-21T18:31:18.402Z,72.10
2018-06-21T18:34:28.850Z,72.30
2018-06-21T18:37:38.759Z,70.70
2018-06-21T18:40:48.791Z,67.30
2018-06-21T18:43:59.714Z,67.70
2018-06-21T18:47:10.200Z,70.40
2018-06-21T18:50:20.282Z,71.70
2018-06-21T18:53:31.019Z,72.90
2018-06-21T18:56:41.233Z,70.80
2018-06-21T18:59:51.416Z,69.00
2018-06-21T19:03:02.056Z,66.70
2018-06-21T19:09:33.901Z,67.70
2018-06-21T19:12:44.097Z,66.30
2018-06-21T19:15:54.743Z,66.70
2018-06-21T19:19:04.823Z,67.30
2018-06-21T19:22:15.371Z,68.30
2018-06-21T19:25:26.368Z,68.20
2018-06-21T19:28:37.502Z,67.80
2018-06-21T19:31:48.478Z,67.90
2018-06-21T19:34:59.407Z,67.20
2018-06-21T19:38:10.199Z,67.50
2018-06-21T19:41:21.069Z,67.30
2018-06-21T19:44:31.015Z,67.20
2018-06-21T19:47:41.218Z,67.90
2018-06-21T19:50:51.985Z,67.00
2018-06-21T19:54:03.376Z,67.60
2018-06-21T19:57:13.619Z,68.70
2018-06-21T20:00:24.335Z,67.40
2018-06-21T20:03:35.046Z,67.90
2018-06-21T20:06:45.145Z,67.60
2018-06-21T20:09:55.070Z,68.30
2018-06-21T20:13:05.967Z,69.10
2018-06-21T20:16:17.240Z,68.70
2018-06-21T20:19:28.404Z,70.80
2018-06-21T20:22:39.289Z,68.80
2018-06-21T20:25:50.229Z,70.40
2018-06-21T20:32:11.991Z,71.10
2018-06-21T20:35:22.173Z,72.90
2018-06-21T20:38:32.248Z,76.00
2018-06-21T20:41:42.827Z,74.20
2018-06-21T20:44:53.857Z,75.50
2018-06-21T20:48:04.657Z,76.50
2018-06-21T20:51:15.580Z,77.60
2018-06-21T20:54:26.385Z,82.80
2018-06-21T20:57:37.261Z,83.50
2018-06-21T21:00:48.037Z,85.30
2018-06-21T21:03:58.759Z,87.50
2018-06-21T21:07:08.989Z,83.40
2018-06-21T21:10:19.900Z,83.80
2018-06-21T21:13:30.415Z,81.70
2018-06-21T21:16:40.301Z,82.50
2018-06-21T21:19:51.610Z,82.20
2018-06-21T21:23:02.038Z,81.80
2018-06-21T21:26:12.900Z,83.40
2018-06-21T21:29:23.860Z,83.00
2018-06-21T21:32:33.787Z,85.20
2018-06-21T21:35:44.561Z,83.90
2018-06-21T21:38:55.311Z,83.50
2018-06-21T21:42:05.826Z,84.60
2018-06-21T21:45:16.671Z,86.70
2018-06-21T21:48:27.505Z,87.20
2018-06-21T21:51:38.139Z,87.00
2018-06-21T21:54:49.018Z,89.10
2018-06-21T22:01:09.237Z,99.90
2018-06-21T22:04:19.204Z,91.00
2018-06-21T22:07:30.057Z,92.50
2018-06-21T22:10:41.857Z,92.90
2018-06-21T22:13:56.374Z,93.80
2018-06-21T22:17:07.097Z,94.40
2018-06-21T22:20:16.928Z,95.30
2018-06-21T22:23:26.949Z,95.20
2018-06-21T22:26:37.862Z,95.90
2018-06-21T22:29:48.700Z,96.60
2018-06-21T22:32:59.616Z,97.00
2018-06-21T22:36:09.895Z,97.90
2018-06-21T22:39:20.741Z,98.30
2018-06-21T22:42:30.781Z,99.40
2018-06-21T22:45:41.518Z,99.90
2018-06-21T22:48:52.042Z,99.90
2018-06-21T22:52:02.433Z,99.90
2018-06-21T22:55:12.459Z,99.90
2018-06-21T22:58:22.824Z,99.90
2018-06-21T23:01:36.590Z,99.90
2018-06-21T23:04:46.449Z,99.90
2018-06-21T23:07:57.223Z,99.90
2018-06-21T23:11:08.883Z,99.90
2018-06-21T23:14:18.857Z,99.90
2018-06-21T23:20:39.030Z,99.90
2018-06-21T23:23:49.828Z,99.90
2018-06-21T23:27:00.527Z,99.90
2018-06-21T23:30:10.994Z,99.90
2018-06-21T23:33:21.666Z,99.90
2018-06-21T23:36:32.086Z,99.90
2018-06-21T23:39:43.056Z,99.90
2018-06-21T23:42:53.600Z,99.90
2018-06-21T23:46:04.420Z,99.90
2018-06-21T23:49:15.517Z,99.90
2018-06-21T23:52:26.313Z,99.90
2018-06-21T23:55:37.134Z,99.90
2018-06-21T23:58:47.921Z,99.90
